Time;durP1;ratioP1;P1;durP2;ratioP2;P2;SDS_P1;SDS_P2;PMS_P1;PMS_P2;Temp;Humidity;BMP_temperature;BMP_pressure;BME280_temperature;BME280_humidity;BME280_pressure;Samples;Min_cycle;Max_cycle;Signal;HPM_P1;HPM_P2
2021/04/29 06:05:35;;;;;;;59.35;15.80;;;;;;;9.54;45.86;99589.37;1769947;77;27850;-67
2021/04/29 06:08:04;;;;;;;47.75;17.07;;;;;;;9.59;45.87;99588.64;1746234;79;25843;-68
2021/04/29 06:10:32;;;;;;;46.85;15.10;;;;;;;9.67;45.83;99585.06;1772702;78;25834;-70
2021/04/29 06:13:00;;;;;;;47.83;16.48;;;;;;;9.74;45.78;99587.30;1780245;78;26320;-69
2021/04/29 06:15:28;;;;;;;46.63;15.20;;;;;;;9.83;45.80;99583.24;1771782;79;25826;-68
2021/04/29 06:17:55;;;;;;;46.15;16.30;;;;;;;9.95;45.82;99575.84;1736320;79;27740;-65
2021/04/29 06:20:25;;;;;;;43.80;15.18;;;;;;;10.06;45.74;99572.08;1725323;81;26154;-69
2021/04/29 06:22:53;;;;;;;36.63;13.95;;;;;;;10.07;45.70;99561.75;1745973;78;26446;-69
2021/04/29 06:25:21;;;;;;;37.38;14.45;;;;;;;10.23;45.65;99582.30;1766268;79;26668;-68
2021/04/29 06:27:49;;;;;;;31.00;14.58;;;;;;;10.29;45.63;99577.92;1761675;79;26433;-69
2021/04/29 06:30:19;;;;;;;40.15;15.78;;;;;;;10.36;45.58;99587.33;1746156;79;28597;-69
2021/04/29 06:32:49;;;;;;;38.30;14.63;;;;;;;10.41;45.59;99583.86;1775709;78;25764;-68
2021/04/29 06:35:18;;;;;;;47.95;15.80;;;;;;;10.50;45.59;99579.77;1747787;78;35020;-68
2021/04/29 06:37:45;;;;;;;41.00;15.40;;;;;;;10.59;45.59;99573.38;1778284;77;26398;-69
2021/04/29 06:40:14;;;;;;;44.73;15.48;;;;;;;10.71;45.54;99567.28;1775901;77;26048;-68
2021/04/29 06:42:44;;;;;;;56.85;17.75;;;;;;;10.80;45.53;99562.31;1775760;78;27978;-68
2021/04/29 06:45:13;;;;;;;39.88;16.32;;;;;;;10.91;45.53;99563.38;1778837;77;26078;-67
2021/04/29 06:47:41;;;;;;;31.85;14.70;;;;;;;11.04;45.51;99560.80;1774477;78;26109;-68
2021/04/29 06:50:11;;;;;;;41.20;15.38;;;;;;;11.14;45.46;99551.70;1776789;78;26359;-67
2021/04/29 06:52:39;;;;;;;44.15;16.70;;;;;;;11.22;45.42;99543.55;1762640;77;26015;-68
2021/04/29 06:55:08;;;;;;;52.35;16.82;;;;;;;11.32;45.37;99537.11;1769088;78;27785;-68
2021/04/29 06:57:36;;;;;;;39.83;17.05;;;;;;;11.43;45.32;99541.31;1765317;78;25884;-68
2021/04/29 07:00:06;;;;;;;45.90;16.05;;;;;;;11.49;45.25;99534.20;1771061;78;25760;-68
2021/04/29 07:02:33;;;;;;;48.38;15.60;;;;;;;11.59;45.32;99527.77;1777633;78;25815;-68
2021/04/29 07:05:02;;;;;;;40.17;16.37;;;;;;;11.72;45.30;99524.66;1763430;78;26202;-68
2021/04/29 07:07:30;;;;;;;36.40;15.38;;;;;;;11.90;45.31;99516.76;1764095;79;26419;-68
2021/04/29 07:09:57;;;;;;;40.33;14.75;;;;;;;12.04;45.23;99525.23;1750387;79;25820;-68
2021/04/29 07:12:25;;;;;;;41.60;15.00;;;;;;;12.17;45.20;99523.92;1751656;79;26383;-68
2021/04/29 07:14:53;;;;;;;44.00;16.52;;;;;;;12.29;45.18;99521.27;1759834;79;26595;-69
2021/04/29 07:17:21;;;;;;;63.42;17.40;;;;;;;12.43;45.14;99516.77;1751439;79;25950;-68
2021/04/29 07:19:49;;;;;;;37.45;15.60;;;;;;;12.54;45.07;99517.76;1751204;78;27808;-68
2021/04/29 07:22:17;;;;;;;44.83;16.80;;;;;;;12.67;45.03;99525.34;1763242;79;26525;-68
2021/04/29 07:24:45;;;;;;;42.17;15.88;;;;;;;12.75;44.93;99523.95;1748818;79;25849;-68
2021/04/29 07:27:13;;;;;;;55.65;17.27;;;;;;;12.82;44.85;99522.55;1747776;79;26091;-68
2021/04/29 07:29:42;;;;;;;46.23;16.25;;;;;;;12.89;44.86;99530.56;1768706;79;25837;-68
2021/04/29 07:32:10;;;;;;;43.85;16.05;;;;;;;13.00;44.85;99529.32;1749423;80;27870;-69
2021/04/29 07:34:38;;;;;;;39.18;17.23;;;;;;;13.10;44.73;99525.45;1762218;79;25921;-68
2021/04/29 07:37:07;;;;;;;44.08;17.12;;;;;;;13.20;44.70;99526.06;1756591;79;26071;-68
2021/04/29 07:39:35;;;;;;;40.35;17.00;;;;;;;13.25;44.69;99521.21;1760695;79;25863;-68
2021/04/29 07:42:03;;;;;;;31.25;15.35;;;;;;;13.45;44.72;99522.45;1756985;79;25730;-68
2021/04/29 07:44:32;;;;;;;41.73;14.90;;;;;;;13.62;44.67;99523.91;1758544;79;27308;-68
2021/04/29 07:47:00;;;;;;;36.95;15.68;;;;;;;13.79;44.66;99521.32;1752975;79;25796;-68
2021/04/29 07:49:28;;;;;;;47.05;14.63;;;;;;;14.00;44.59;99522.41;1769135;79;26226;-68
2021/04/29 07:51:58;;;;;;;33.45;14.65;;;;;;;14.18;44.54;99526.41;1750478;79;26340;-68
2021/04/29 07:54:25;;;;;;;30.45;15.18;;;;;;;14.33;44.38;99520.34;1757053;79;25827;-68
2021/04/29 07:56:53;;;;;;;49.45;16.40;;;;;;;14.38;44.19;99528.07;1739367;79;28295;-68
2021/04/29 07:59:23;;;;;;;35.50;15.15;;;;;;;14.41;44.23;99526.00;1752546;79;26360;-68
2021/04/29 08:01:52;;;;;;;37.75;15.78;;;;;;;14.52;44.21;99530.11;1755654;79;25779;-68
2021/04/29 08:04:20;;;;;;;36.88;16.87;;;;;;;14.65;44.19;99530.02;1739533;80;26302;-68
2021/04/29 08:06:49;;;;;;;36.73;15.78;;;;;;;14.84;44.07;99529.44;1783545;77;26695;-68
2021/04/29 08:09:18;;;;;;;47.08;18.27;;;;;;;14.78;43.93;99533.48;1784163;76;28193;-68
2021/04/29 08:11:46;;;;;;;39.53;15.60;;;;;;;14.89;44.02;99544.77;1809199;78;25788;-68
2021/04/29 08:14:17;;;;;;;32.35;15.35;;;;;;;14.99;43.91;99547.11;1813435;77;25845;-68
2021/04/29 08:16:45;;;;;;;36.75;14.63;;;;;;;15.02;43.84;99550.92;1745664;79;26800;-68
2021/04/29 08:19:13;;;;;;;27.13;15.88;;;;;;;14.97;43.74;99549.56;1753223;80;25830;-67
2021/04/29 08:21:41;;;;;;;37.65;16.95;;;;;;;14.85;43.64;99552.73;1753090;79;27591;-68
2021/04/29 08:24:09;;;;;;;28.85;14.80;;;;;;;14.72;43.72;99550.14;1710890;82;26342;-67
2021/04/29 08:26:37;;;;;;;36.10;17.07;;;;;;;14.68;43.79;99543.75;1748599;79;25825;-67
2021/04/29 08:29:05;;;;;;;25.30;14.65;;;;;;;14.64;43.75;99534.18;1747504;79;26035;-68
2021/04/29 08:31:34;;;;;;;30.77;13.85;;;;;;;14.57;43.76;99537.35;1754855;79;25864;-68
2021/04/29 08:34:04;;;;;;;26.80;14.38;;;;;;;14.43;43.80;99530.81;1689185;82;27871;-67
2021/04/29 08:36:35;;;;;;;30.60;12.78;;;;;;;14.45;43.92;99538.30;1720919;80;25877;-68
2021/04/29 08:39:06;;;;;;;27.98;12.43;;;;;;;14.44;43.84;99541.11;1731245;81;26524;-67
2021/04/29 08:41:34;;;;;;;;;;;;;;;14.34;43.81;99537.37;1753536;79;26047;-67
2021/04/29 08:44:03;;;;;;;29.25;14.45;;;;;;;14.22;43.98;99544.55;1701791;81;25670;-67
2021/04/29 08:46:32;;;;;;;35.73;13.85;;;;;;;14.18;44.07;99545.76;1789414;77;26131;-67
2021/04/29 08:49:02;;;;;;;23.52;13.45;;;;;;;14.16;44.07;99543.67;1782946;78;26414;-68
2021/04/29 08:51:30;;;;;;;26.40;13.68;;;;;;;14.11;44.09;99558.84;1784948;77;25884;-67
2021/04/29 08:53:58;;;;;;;34.90;13.53;;;;;;;14.12;44.14;99558.34;1800236;77;26546;-67
2021/04/29 08:56:26;;;;;;;37.33;13.83;;;;;;;14.07;44.18;99569.47;1791575;77;26154;-67
2021/04/29 08:58:57;;;;;;;31.70;13.55;;;;;;;14.10;44.28;99562.99;1774436;77;28439;-69
2021/04/29 09:01:26;;;;;;;23.42;13.45;;;;;;;14.09;44.27;99567.52;1787419;77;26401;-68
2021/04/29 09:03:55;;;;;;;25.72;13.50;;;;;;;14.10;44.41;99564.34;1789065;77;26228;-68
2021/04/29 09:06:31;;;;;;;30.35;13.70;;;;;;;14.06;44.50;99562.36;1817460;77;26016;-67
2021/04/29 09:09:00;;;;;;;25.97;14.33;;;;;;;14.03;44.67;99557.69;1813388;77;26434;-67
2021/04/29 09:11:28;;;;;;;29.55;14.83;;;;;;;14.00;44.86;99546.66;1784805;77;27864;-69
2021/04/29 09:14:00;;;;;;;40.17;14.25;;;;;;;14.02;44.93;99538.45;1785475;78;25737;-68
2021/04/29 09:16:44;;;;;;;29.30;13.80;;;;;;;14.10;45.06;99531.52;1794066;78;25813;-67
2021/04/29 09:19:25;;;;;;;36.45;15.23;;;;;;;14.17;45.19;99531.91;1787641;77;25891;-68
2021/04/29 09:21:59;;;;;;;32.13;13.88;;;;;;;14.28;45.29;99531.95;1791087;77;25766;-68
2021/04/29 09:24:39;;;;;;;33.40;15.18;;;;;;;14.31;45.32;99537.11;1801110;77;28070;-68
2021/04/29 09:27:17;;;;;;;33.67;15.32;;;;;;;14.39;45.54;99530.65;1791992;77;25845;-67
2021/04/29 09:29:55;;;;;;;32.10;15.43;;;;;;;14.47;45.61;99532.30;1795310;77;25805;-68
2021/04/29 09:32:35;;;;;;;31.25;16.00;;;;;;;14.54;45.59;99534.89;1795629;77;26721;-67
2021/04/29 09:35:10;;;;;;;31.37;15.05;;;;;;;14.57;45.74;99525.22;1796536;78;25920;-67
2021/04/29 09:37:40;;;;;;;36.65;14.60;;;;;;;14.74;45.83;99532.00;1799005;77;25816;-66
2021/04/29 09:40:29;;;;;;;34.75;14.73;;;;;;;14.86;45.86;99520.24;1797554;78;26261;-67
2021/04/29 09:43:00;;;;;;;34.23;14.80;;;;;;;15.01;45.83;99520.87;1791788;78;25943;-67
2021/04/29 09:45:31;;;;;;;43.55;16.45;;;;;;;15.09;45.84;99519.77;1817465;77;25949;-67
2021/04/29 09:48:07;;;;;;;45.43;15.53;;;;;;;15.18;45.83;99504.19;1788461;77;26150;-67
2021/04/29 09:50:41;;;;;;;33.05;14.90;;;;;;;15.30;45.85;99500.13;1773547;78;27472;-67
2021/04/29 09:53:16;;;;;;;35.23;13.38;;;;;;;15.42;45.81;99500.48;1792425;78;25959;-67
2021/04/29 09:56:00;;;;;;;29.72;11.85;;;;;;;15.54;45.81;99502.19;1778471;78;26230;-68
2021/04/29 09:58:26;;;;;;;36.80;14.20;;;;;;;15.66;45.76;99503.02;1779135;78;26610;-67
2021/04/29 10:00:52;;;;;;;31.62;13.25;;;;;;;15.73;45.73;99494.77;1776289;77;25836;-65
2021/04/29 10:03:21;;;;;;;31.77;13.58;;;;;;;15.83;45.67;99489.83;1817672;77;26293;-65
2021/04/29 10:05:53;;;;;;;31.97;12.93;;;;;;;16.02;45.80;99490.99;1811991;77;25735;-65
2021/04/29 10:08:25;;;;;;;36.40;15.28;;;;;;;16.26;45.71;99489.41;1821071;77;26609;-65
2021/04/29 10:10:56;;;;;;;22.65;11.48;;;;;;;16.46;45.61;99491.27;1786983;76;25865;-66
2021/04/29 10:13:30;;;;;;;23.07;12.45;;;;;;;16.54;45.41;99492.81;1809263;77;25770;-66
2021/04/29 10:15:59;;;;;;;42.62;13.00;;;;;;;16.57;45.50;99495.25;1797997;77;27922;-65
2021/04/29 10:18:30;;;;;;;35.35;12.53;;;;;;;16.70;45.46;99493.23;1768466;78;26219;-69
2021/04/29 10:21:00;;;;;;;28.10;13.28;;;;;;;16.79;45.45;99497.84;1794967;77;26798;-66
2021/04/29 10:23:28;;;;;;;32.55;13.15;;;;;;;16.83;45.32;99502.50;1803224;78;25787;-65
2021/04/29 10:26:01;;;;;;;23.42;13.13;;;;;;;16.89;45.21;99500.61;1806850;77;25811;-65
2021/04/29 10:28:42;;;;;;;34.13;13.62;;;;;;;16.87;45.18;99503.95;1804529;77;27758;-66
2021/04/29 10:31:20;;;;;;;32.67;14.23;;;;;;;16.85;45.14;99503.22;1790543;77;25816;-70
2021/04/29 10:33:56;;;;;;;27.62;13.00;;;;;;;16.81;44.99;99499.06;1806236;77;25883;-68
2021/04/29 10:36:40;;;;;;;27.40;12.05;;;;;;;16.68;44.93;99495.72;1766983;79;25864;-66
2021/04/29 10:39:19;;;;;;;19.73;12.95;;;;;;;16.56;44.82;99486.28;1753672;79;25979;-68
2021/04/29 10:42:05;;;;;;;30.00;12.73;;;;;;;16.38;44.95;99487.87;1711986;80;27912;-69
2021/04/29 10:44:42;;;;;;;26.85;13.70;;;;;;;16.34;45.00;99486.41;1714285;80;25832;-67
2021/04/29 10:47:22;;;;;;;29.85;13.45;;;;;;;16.34;45.17;99494.53;1809840;77;25753;-68
2021/04/29 10:49:52;;;;;;;21.45;12.95;;;;;;;16.33;45.26;99491.45;1797627;77;26188;-68
2021/04/29 10:52:20;;;;;;;26.30;14.13;;;;;;;16.33;45.24;99491.95;1815479;77;25901;-68
2021/04/29 10:54:53;;;;;;;27.77;13.25;;;;;;;16.29;45.50;99490.50;1804676;77;28000;-67
2021/04/29 10:57:21;;;;;;;30.85;15.83;;;;;;;16.32;45.60;99484.83;1795577;77;25808;-67
2021/04/29 10:59:54;;;;;;;23.45;13.83;;;;;;;16.46;45.85;99479.95;1819281;77;25874;-67
2021/04/29 11:02:35;;;;;;;28.62;13.35;;;;;;;16.62;45.81;99474.08;1806161;77;25912;-67
2021/04/29 11:05:05;;;;;;;25.90;13.90;;;;;;;16.74;45.99;99470.83;1809475;77;25768;-68
2021/04/29 11:07:37;;;;;;;34.58;14.70;;;;;;;16.94;46.05;99465.88;1801568;77;27948;-67
2021/04/29 11:10:12;;;;;;;36.05;15.00;;;;;;;16.93;46.16;99470.07;1760585;79;26030;-70
2021/04/29 11:12:54;;;;;;;23.35;13.03;;;;;;;16.85;46.22;99472.95;1760312;79;26335;-66
2021/04/29 11:15:29;;;;;;;24.90;13.45;;;;;;;16.84;46.28;99470.38;1758090;79;25936;-66
2021/04/29 11:18:19;;;;;;;24.75;13.22;;;;;;;16.85;46.44;99470.25;1740602;79;25832;-66
2021/04/29 11:20:58;;;;;;;24.35;13.18;;;;;;;16.82;46.27;99466.45;1751636;79;27833;-65
2021/04/29 11:23:42;;;;;;;29.77;13.78;;;;;;;16.77;46.38;99466.50;1738803;80;25876;-65
2021/04/29 11:26:16;;;;;;;24.90;14.40;;;;;;;16.78;46.51;99462.80;1737015;79;25955;-67
2021/04/29 11:28:48;;;;;;;51.85;16.23;;;;;;;16.90;46.61;99456.31;1736511;79;25649;-64
2021/04/29 11:31:18;;;;;;;30.17;15.13;;;;;;;17.07;46.63;99458.38;1812711;77;25881;-66
2021/04/29 11:33:49;;;;;;;25.02;14.30;;;;;;;17.17;46.56;99455.70;1743822;79;27433;-66
2021/04/29 11:36:26;;;;;;;22.30;13.48;;;;;;;17.22;46.51;99456.65;1755927;79;25720;-65
2021/04/29 11:39:04;;;;;;;28.98;15.93;;;;;;;17.27;46.61;99450.33;1725674;80;25947;-67
2021/04/29 11:41:32;;;;;;;31.52;18.05;;;;;;;17.26;46.51;99451.31;1753631;80;26206;-65
2021/04/29 11:44:12;;;;;;;34.18;19.07;;;;;;;17.22;46.63;99447.17;1738011;80;26234;-66
2021/04/29 11:46:38;;;;;;;27.85;15.43;;;;;;;17.20;46.79;99445.95;1764645;79;25962;-65
2021/04/29 11:49:09;;;;;;;29.10;14.50;;;;;;;17.31;46.84;99453.11;1753838;80;25753;-65
2021/04/29 11:51:49;;;;;;;23.15;13.98;;;;;;;17.27;46.79;99452.53;1743383;80;25804;-67
2021/04/29 11:54:20;;;;;;;25.63;14.80;;;;;;;17.14;46.86;99455.98;1740439;80;25887;-69
2021/04/29 11:56:56;;;;;;;27.32;13.65;;;;;;;17.08;46.90;99450.62;1760040;78;25855;-68
2021/04/29 11:59:26;;;;;;;28.52;15.95;;;;;;;17.05;47.03;99440.56;1749625;80;28348;-66
2021/04/29 12:01:59;;;;;;;52.25;16.87;;;;;;;17.25;47.20;99439.63;1749145;80;25824;-68
2021/04/29 12:04:27;;;;;;;28.50;16.85;;;;;;;17.49;47.00;99433.84;1753573;80;25814;-66
2021/04/29 12:06:58;;;;;;;29.85;14.33;;;;;;;17.69;47.07;99434.76;1748283;79;25847;-66
2021/04/29 12:09:28;;;;;;;31.42;18.17;;;;;;;17.88;46.89;99430.70;1741724;81;25888;-66
2021/04/29 12:12:10;;;;;;;29.75;16.40;;;;;;;18.03;46.76;99436.05;1733214;79;26433;-66
2021/04/29 12:14:38;;;;;;;33.15;17.17;;;;;;;18.24;46.72;99442.65;1753535;79;25910;-66
2021/04/29 12:17:07;;;;;;;30.48;16.87;;;;;;;18.11;46.38;99448.90;1770047;79;25798;-67
2021/04/29 12:19:36;;;;;;;23.90;14.68;;;;;;;17.89;46.23;99461.38;1759792;79;25860;-67
2021/04/29 12:22:03;;;;;;;25.45;13.55;;;;;;;17.89;46.23;99461.38;1780255;79;25797;-66
2021/04/29 12:24:44;;;;;;;26.77;14.00;;;;;;;17.81;46.20;99477.85;1794815;77;26109;-66
2021/04/29 12:27:19;;;;;;;24.60;12.80;;;;;;;17.66;46.13;99463.00;1782040;77;25875;-66
2021/04/29 12:30:06;;;;;;;25.80;14.43;;;;;;;17.58;46.12;99464.66;1802209;77;25811;-66
2021/04/29 12:32:44;;;;;;;22.80;13.60;;;;;;;17.56;46.21;99461.23;1799798;77;26080;-66
2021/04/29 12:35:31;;;;;;;22.22;11.95;;;;;;;17.51;46.10;99461.65;1798583;77;25848;-66
2021/04/29 12:37:59;;;;;;;22.62;12.88;;;;;;;17.56;46.23;99458.52;1797828;77;27659;-66
2021/04/29 12:40:31;;;;;;;27.07;13.55;;;;;;;17.59;46.16;99459.59;1804622;77;25799;-66
2021/04/29 12:43:15;;;;;;;25.23;13.20;;;;;;;17.59;46.02;99459.59;1727876;79;26479;-66
2021/04/29 12:45:51;;;;;;;26.87;13.65;;;;;;;17.54;46.10;99462.73;1812939;77;25888;-67
2021/04/29 12:48:33;;;;;;;22.10;11.97;;;;;;;17.38;46.02;99466.47;1820434;77;25866;-66
2021/04/29 12:51:13;;;;;;;24.30;13.48;;;;;;;17.18;46.05;99462.34;1809490;77;26157;-69
2021/04/29 12:54:07;;;;;;;18.23;12.13;;;;;;;17.01;46.09;99456.72;1778281;77;25824;-68
2021/04/29 12:56:40;;;;;;;22.42;12.15;;;;;;;16.93;46.31;99463.30;1806215;77;26477;-70
2021/04/29 12:59:24;;;;;;;20.52;11.80;;;;;;;16.81;46.39;99462.03;1805209;77;26095;-70
2021/04/29 13:02:08;;;;;;;29.27;11.97;;;;;;;16.79;46.46;99468.58;1798257;77;25748;-70
2021/04/29 13:04:39;;;;;;;25.43;12.03;;;;;;;16.79;46.56;99462.67;1801414;77;27424;-70
2021/04/29 13:07:09;;;;;;;24.43;12.20;;;;;;;16.82;46.62;99467.81;1776965;77;25851;-70
2021/04/29 13:09:43;;;;;;;24.87;12.80;;;;;;;16.85;46.68;99458.56;1826345;77;25956;-70
2021/04/29 13:12:15;;;;;;;25.25;11.63;;;;;;;16.87;46.70;99452.52;1808595;77;27144;-70
2021/04/29 13:14:45;;;;;;;24.85;12.30;;;;;;;16.93;46.82;99452.48;1763084;78;26250;-69
2021/04/29 13:17:20;;;;;;;22.00;12.33;;;;;;;17.13;46.89;99455.13;1761686;80;28771;-70
2021/04/29 13:20:04;;;;;;;25.25;12.80;;;;;;;17.37;46.89;99454.77;1770030;78;25865;-70
2021/04/29 13:22:36;;;;;;;25.60;12.68;;;;;;;17.63;47.03;99445.63;1735893;79;25810;-70
2021/04/29 13:25:13;;;;;;;19.80;12.43;;;;;;;18.10;46.79;99441.27;1736457;80;26171;-71
2021/04/29 13:27:44;;;;;;;23.50;12.82;;;;;;;18.40;46.52;99449.70;1742804;79;25987;-66
2021/04/29 13:30:14;;;;;;;22.52;13.75;;;;;;;18.71;46.40;99440.88;1749004;80;26053;-66
2021/04/29 13:32:45;;;;;;;23.90;12.93;;;;;;;18.76;46.08;99439.92;1745935;79;26005;-67
2021/04/29 13:35:15;;;;;;;24.67;12.37;;;;;;;18.85;46.08;99438.69;1737503;80;32668;-66
2021/04/29 13:37:44;;;;;;;24.15;13.62;;;;;;;18.78;45.79;99445.20;1806570;77;25900;-67
2021/04/29 13:40:15;;;;;;;23.55;12.25;;;;;;;18.54;45.74;99447.53;1829751;76;25852;-65
2021/04/29 13:42:43;;;;;;;33.30;13.50;;;;;;;18.33;45.73;99436.36;1811435;77;27829;-65
2021/04/29 13:45:14;;;;;;;21.90;13.58;;;;;;;18.15;45.78;99439.48;1834826;77;25782;-65
2021/04/29 13:47:43;;;;;;;27.37;14.55;;;;;;;17.93;45.90;99449.25;1810380;76;25713;-66
2021/04/29 13:50:12;;;;;;;43.40;16.57;;;;;;;17.71;45.96;99451.23;1824640;77;25972;-67
2021/04/29 13:52:40;;;;;;;25.15;14.53;;;;;;;17.44;46.13;99463.20;1811109;77;25830;-67
2021/04/29 13:55:10;;;;;;;31.10;15.98;;;;;;;17.10;46.36;99468.08;1798318;77;27666;-66
2021/04/29 13:57:37;;;;;;;35.92;16.90;;;;;;;16.92;46.76;99466.51;1817433;77;25806;-66
2021/04/29 14:00:10;;;;;;;28.52;15.28;;;;;;;16.76;46.89;99458.88;1813644;77;26621;-66
2021/04/29 14:02:40;;;;;;;27.25;14.43;;;;;;;16.82;47.16;99454.28;1800284;77;25817;-67
2021/04/29 14:05:10;;;;;;;35.85;17.92;;;;;;;16.94;47.21;99455.55;1807370;77;25794;-66
2021/04/29 14:07:39;;;;;;;25.52;14.38;;;;;;;16.97;47.23;99457.48;1737811;79;27947;-65
2021/04/29 14:10:10;;;;;;;31.75;16.40;;;;;;;16.93;47.30;99445.70;1735293;81;25930;-67
2021/04/29 14:12:38;;;;;;;40.35;18.27;;;;;;;16.86;47.46;99453.02;1724591;80;25897;-66
2021/04/29 14:15:08;;;;;;;45.48;18.10;;;;;;;16.81;47.58;99443.59;1737936;80;25964;-66
2021/04/29 14:17:35;;;;;;;28.25;14.18;;;;;;;16.76;47.64;99445.84;1814311;77;25834;-66
2021/04/29 14:20:05;;;;;;;22.35;12.98;;;;;;;16.74;47.75;99441.92;1818962;77;27533;-66
2021/04/29 14:22:33;;;;;;;27.90;13.48;;;;;;;16.68;47.85;99432.98;1818205;77;25764;-65
2021/04/29 14:25:01;;;;;;;25.35;14.83;;;;;;;16.65;47.96;99439.16;1796210;77;25802;-67
2021/04/29 14:27:28;;;;;;;36.50;15.38;;;;;;;16.69;48.14;99444.67;1830462;77;25924;-66
2021/04/29 14:29:56;;;;;;;33.05;16.80;;;;;;;16.74;48.28;99435.65;1818740;77;25793;-66
2021/04/29 14:32:26;;;;;;;34.03;14.20;;;;;;;16.82;48.32;99433.98;1804197;77;28470;-66
2021/04/29 14:34:55;;;;;;;29.48;14.83;;;;;;;16.87;48.39;99434.43;1826077;77;25847;-66
2021/04/29 14:37:22;;;;;;;22.62;11.78;;;;;;;16.87;48.42;99437.64;1799357;77;25894;-66
2021/04/29 14:39:50;;;;;;;17.73;11.03;;;;;;;16.78;48.57;99432.54;1783213;77;26532;-66
2021/04/29 14:42:18;;;;;;;32.28;14.10;;;;;;;16.68;48.65;99429.42;1753303;80;25722;-67
2021/04/29 14:44:46;;;;;;;18.57;10.82;;;;;;;16.62;48.72;99435.34;1724593;79;27621;-68
2021/04/29 14:47:15;;;;;;;23.05;11.38;;;;;;;16.56;48.85;99425.42;1746502;80;25800;-66
2021/04/29 14:49:44;;;;;;;24.05;11.78;;;;;;;16.51;48.94;99423.61;1742419;80;25982;-66
2021/04/29 14:52:12;;;;;;;25.70;12.88;;;;;;;16.49;49.04;99432.35;1741180;80;25867;-65
2021/04/29 14:54:39;;;;;;;16.85;10.68;;;;;;;16.49;49.10;99431.00;1755320;80;26627;-68
2021/04/29 14:57:09;;;;;;;16.02;9.93;;;;;;;16.43;49.18;99426.12;1749779;79;25965;-65
2021/04/29 14:59:38;;;;;;;25.72;12.05;;;;;;;16.35;49.28;99430.48;1752434;79;26211;-65
2021/04/29 15:02:06;;;;;;;19.20;10.63;;;;;;;16.27;49.36;99431.64;1803440;77;25787;-66
2021/04/29 15:04:34;;;;;;;23.85;11.25;;;;;;;16.20;49.51;99421.34;1794826;77;26019;-66
2021/04/29 15:07:05;;;;;;;30.12;11.53;;;;;;;16.15;49.60;99426.79;1791073;78;25852;-67
2021/04/29 15:09:32;;;;;;;21.15;11.30;;;;;;;16.10;49.70;99427.68;1701201;80;28127;-66
2021/04/29 15:12:01;;;;;;;24.77;12.43;;;;;;;16.04;49.82;99426.84;1773090;78;25858;-66
2021/04/29 15:14:29;;;;;;;22.32;12.10;;;;;;;15.94;49.94;99422.72;1778224;79;25828;-66
2021/04/29 15:16:58;;;;;;;22.30;12.43;;;;;;;15.87;50.13;99434.54;1761445;79;26745;-67
2021/04/29 15:19:25;;;;;;;34.98;12.82;;;;;;;15.79;50.32;99431.63;1776555;78;25866;-66
2021/04/29 15:21:54;;;;;;;22.20;12.15;;;;;;;15.74;50.52;99439.75;1782536;78;27442;-66
2021/04/29 15:24:23;;;;;;;19.73;11.93;;;;;;;15.70;50.72;99448.61;1729833;81;26018;-66
2021/04/29 15:26:52;;;;;;;23.02;13.32;;;;;;;15.69;50.83;99449.59;1724549;80;25827;-66
2021/04/29 15:29:21;;;;;;;30.77;13.50;;;;;;;15.67;51.04;99442.60;1729219;80;26278;-66
2021/04/29 15:31:49;;;;;;;19.35;12.40;;;;;;;15.68;51.24;99441.62;1718476;80;26949;-67
2021/04/29 15:34:17;;;;;;;25.30;13.03;;;;;;;15.68;51.35;99449.72;1717757;81;27587;-66
2021/04/29 15:36:45;;;;;;;21.75;12.28;;;;;;;15.70;51.63;99445.91;1742654;80;25826;-66
2021/04/29 15:39:13;;;;;;;21.93;12.05;;;;;;;15.75;51.83;99443.68;1720563;81;25949;-67
2021/04/29 15:41:42;;;;;;;23.65;12.07;;;;;;;15.79;52.02;99432.98;1747708;80;26853;-67
2021/04/29 15:44:10;;;;;;;22.17;12.00;;;;;;;15.88;52.78;99429.50;1713898;81;25901;-65
2021/04/29 15:46:38;;;;;;;26.37;11.73;;;;;;;15.93;52.41;99427.76;1723622;81;27886;-66
2021/04/29 15:49:06;;;;;;;23.38;13.75;;;;;;;16.00;52.51;99428.95;1727192;81;25821;-67
2021/04/29 15:51:33;;;;;;;30.62;14.98;;;;;;;16.05;52.50;99422.66;1718461;80;25910;-67
2021/04/29 15:54:07;;;;;;;28.07;12.90;;;;;;;16.32;52.59;99427.55;1733292;80;26470;-66
2021/04/29 15:56:41;;;;;;;21.42;12.43;;;;;;;16.45;52.59;99419.23;1736832;81;26520;-65
2021/04/29 15:59:11;;;;;;;25.23;12.85;;;;;;;16.48;52.53;99421.17;1727511;81;25840;-65
2021/04/29 16:01:39;;;;;;;;;;;;;;;16.42;52.49;99415.44;1726880;80;25830;-65
2021/04/29 16:04:08;;;;;;;26.65;11.97;;;;;;;16.34;52.54;99416.11;1720480;81;25949;-65
2021/04/29 16:06:36;;;;;;;25.25;13.85;;;;;;;16.29;52.52;99416.14;1742290;80;26079;-64
2021/04/29 16:09:06;;;;;;;27.77;14.38;;;;;;;16.26;52.57;99408.30;1725352;80;25987;-64
2021/04/29 16:11:36;;;;;;;25.00;13.98;;;;;;;16.28;52.57;99404.47;1738792;80;28178;-64
2021/04/29 16:14:05;;;;;;;21.93;12.00;;;;;;;16.30;52.56;99393.52;1742269;80;25929;-64
2021/04/29 16:16:37;;;;;;;52.08;22.25;;;;;;;16.27;52.64;99389.73;1733772;80;25862;-64
2021/04/29 16:19:06;;;;;;;26.23;16.02;;;;;;;16.21;52.61;99390.63;1735763;80;26780;-63
2021/04/29 16:21:34;;;;;;;29.00;15.60;;;;;;;16.15;52.67;99397.91;1736676;80;25899;-64
2021/04/29 16:24:05;;;;;;;32.00;15.93;;;;;;;16.14;52.70;99394.84;1734151;80;26172;-64
2021/04/29 16:26:33;;;;;;;25.20;13.25;;;;;;;16.10;52.70;99402.00;1731458;80;26006;-64
2021/04/29 16:29:04;;;;;;;25.82;12.88;;;;;;;16.11;52.74;99405.06;1751615;79;25843;-64
2021/04/29 16:31:32;;;;;;;37.90;12.80;;;;;;;16.14;52.82;99414.27;1741222;80;26729;-64
2021/04/29 16:34:02;;;;;;;26.97;13.05;;;;;;;16.17;52.81;99416.20;1730797;80;25804;-64
2021/04/29 16:36:30;;;;;;;24.35;11.48;;;;;;;16.22;52.80;99419.87;1750186;80;28025;-64
2021/04/29 16:38:58;;;;;;;23.45;11.73;;;;;;;16.28;52.84;99416.64;1730823;80;25824;-64
2021/04/29 16:41:26;;;;;;;21.55;12.93;;;;;;;16.35;52.86;99412.91;1739847;80;26468;-64
2021/04/29 16:43:57;;;;;;;30.95;15.05;;;;;;;16.43;52.87;99409.04;1745846;80;26662;-64
2021/04/29 16:46:25;;;;;;;25.55;14.47;;;;;;;16.44;52.93;99416.16;1738086;81;25949;-64
2021/04/29 16:48:54;;;;;;;28.30;12.80;;;;;;;16.46;52.95;99413.69;1761949;78;27655;-64
2021/04/29 16:51:22;;;;;;;21.80;13.38;;;;;;;16.45;52.95;99409.77;1735678;80;25945;-64
2021/04/29 16:53:50;;;;;;;23.05;12.60;;;;;;;16.34;52.92;99416.11;1731076;80;26493;-64
2021/04/29 16:56:19;;;;;;;24.98;14.35;;;;;;;16.28;53.04;99413.07;1740054;80;26216;-64
2021/04/29 16:58:50;;;;;;;23.62;14.20;;;;;;;16.24;53.09;99420.09;1741604;80;26471;-64
2021/04/29 17:01:18;;;;;;;27.95;14.07;;;;;;;16.17;53.17;99420.76;1742265;80;28030;-64
2021/04/29 17:03:45;;;;;;;23.85;14.25;;;;;;;16.24;53.33;99415.19;1714251;79;25965;-64
2021/04/29 17:06:15;;;;;;;24.07;14.53;;;;;;;16.48;53.38;99419.81;1728476;80;26299;-64
2021/04/29 17:08:42;;;;;;;23.85;14.40;;;;;;;16.73;53.39;99410.94;1742523;79;25918;-64
2021/04/29 17:11:10;;;;;;;23.77;13.62;;;;;;;16.87;53.32;99404.66;1810407;77;25963;-64
2021/04/29 17:13:39;;;;;;;18.95;13.13;;;;;;;16.84;53.32;99406.78;1815376;76;25957;-64
2021/04/29 17:16:09;;;;;;;22.85;13.05;;;;;;;16.80;53.35;99402.63;1755007;80;25822;-64
2021/04/29 17:18:39;;;;;;;25.15;12.73;;;;;;;16.87;53.40;99402.45;1799635;77;25838;-64
2021/04/29 17:21:12;;;;;;;23.45;12.85;;;;;;;16.88;53.34;99409.58;1765277;79;25732;-64
2021/04/29 17:23:43;;;;;;;21.17;13.25;;;;;;;16.90;53.37;99399.47;1738042;79;25876;-64
2021/04/29 17:26:10;;;;;;;23.92;11.97;;;;;;;16.91;53.26;99401.19;1756850;79;28446;-64
2021/04/29 17:28:39;;;;;;;22.45;13.10;;;;;;;17.06;53.37;99401.66;1792343;78;25815;-64
2021/04/29 17:31:09;;;;;;;22.07;13.70;;;;;;;17.15;53.14;99398.98;1743133;80;25772;-64
2021/04/29 17:33:37;;;;;;;24.45;12.95;;;;;;;17.34;53.11;99395.46;1730025;80;26349;-64
2021/04/29 17:36:05;;;;;;;21.42;13.35;;;;;;;17.51;52.97;99404.26;1784365;78;25884;-64
2021/04/29 17:38:33;;;;;;;20.12;13.90;;;;;;;17.60;52.78;99403.91;1809860;77;27726;-64